Time;durP1;ratioP1;P1;durP2;ratioP2;P2;SDS_P1;SDS_P2;PMS_P1;PMS_P2;Temp;Humidity;BMP_temperature;BMP_pressure;BME280_temperature;BME280_humidity;BME280_pressure;Samples;Min_cycle;Max_cycle;Signal;HPM_P1;HPM_P2
2022/04/13 00:00:32;;;;;;;3.17;2.85;;;;;;;10.41;78.04;95547.84;6368069;22;20029;-61
2022/04/13 00:02:58;;;;;;;2.60;2.40;;;;;;;10.42;77.59;95544.25;6368370;22;20006;-61
2022/04/13 00:05:24;;;;;;;5.35;2.85;;;;;;;10.39;77.53;95540.09;6368043;22;20051;-61
2022/04/13 00:07:49;;;;;;;5.18;2.75;;;;;;;10.35;77.76;95537.88;6368184;22;20024;-62
2022/04/13 00:10:15;;;;;;;4.07;2.53;;;;;;;10.35;78.49;95537.88;6367698;22;20010;-61
2022/04/13 00:12:41;;;;;;;2.97;2.53;;;;;;;10.31;78.64;95535.53;6367455;22;20006;-61
2022/04/13 00:15:08;;;;;;;4.10;2.17;;;;;;;10.31;78.38;95538.19;6367845;22;20035;-61
2022/04/13 00:17:38;;;;;;;3.60;3.03;;;;;;;10.27;77.72;95539.41;6367808;22;20434;-61
2022/04/13 00:20:04;;;;;;;7.00;3.17;;;;;;;10.22;78.19;95530.31;6367747;22;20335;-61
2022/04/13 00:22:30;;;;;;;4.70;3.28;;;;;;;10.18;78.44;95529.75;6367233;22;20009;-61
2022/04/13 00:24:56;;;;;;;9.98;3.33;;;;;;;10.20;77.90;95527.81;6367156;22;20014;-61
2022/04/13 00:27:21;;;;;;;6.63;3.20;;;;;;;10.23;77.76;95524.91;6367827;22;19998;-61
2022/04/13 00:29:46;;;;;;;4.63;2.78;;;;;;;10.20;76.89;95525.19;6367290;22;20002;-61
2022/04/13 00:32:12;;;;;;;3.75;3.28;;;;;;;10.18;77.13;95525.34;6367526;22;20556;-61
2022/04/13 00:34:37;;;;;;;3.97;3.00;;;;;;;10.20;77.48;95530.44;6367440;22;19994;-61
2022/04/13 00:37:03;;;;;;;4.28;2.97;;;;;;;10.16;78.43;95524.63;6367723;22;20010;-61
2022/04/13 00:39:29;;;;;;;6.88;3.08;;;;;;;10.18;78.13;95524.50;6367720;22;19999;-61
2022/04/13 00:42:00;;;;;;;3.20;3.00;;;;;;;10.16;77.73;95519.38;6367276;22;20443;-62
2022/04/13 00:44:29;;;;;;;3.60;3.30;;;;;;;10.08;79.38;95513.19;6367457;22;19998;-61
2022/04/13 00:46:56;;;;;;;6.68;3.45;;;;;;;10.06;78.87;95521.22;6367556;22;20006;-61
2022/04/13 00:49:22;;;;;;;3.35;3.08;;;;;;;10.05;79.20;95511.66;6366222;22;20015;-62
2022/04/13 00:51:48;;;;;;;7.15;3.10;;;;;;;10.03;79.39;95511.81;6366780;22;20184;-61
2022/04/13 00:54:18;;;;;;;3.60;3.00;;;;;;;10.05;79.55;95516.94;6367533;22;20026;-61
2022/04/13 00:56:47;;;;;;;11.10;3.22;;;;;;;10.03;79.33;95514.44;6367645;22;20337;-61
2022/04/13 00:59:14;;;;;;;7.18;2.90;;;;;;;10.01;79.61;95512.94;6367475;22;20081;-61
2022/04/13 01:01:42;;;;;;;4.40;2.30;;;;;;;10.02;79.24;95514.59;6366889;22;20081;-61
2022/04/13 01:04:11;;;;;;;4.18;2.60;;;;;;;9.95;79.11;95514.31;6367490;22;20008;-61
2022/04/13 01:06:38;;;;;;;5.38;2.55;;;;;;;9.94;78.49;95503.94;6365390;22;20008;-61
2022/04/13 01:09:04;;;;;;;5.78;3.00;;;;;;;9.98;77.51;95505.34;6366459;22;20338;-61
2022/04/13 01:11:29;;;;;;;3.17;2.47;;;;;;;9.99;78.34;95510.44;6365904;22;20006;-61
2022/04/13 01:13:56;;;;;;;6.55;3.03;;;;;;;9.96;78.34;95505.47;6367057;22;20002;-61
2022/04/13 01:16:23;;;;;;;3.63;2.70;;;;;;;9.93;78.04;95497.03;6367552;22;20314;-62
2022/04/13 01:18:48;;;;;;;2.83;2.50;;;;;;;9.94;77.95;95506.56;6367764;22;20697;-62
2022/04/13 01:21:16;;;;;;;3.42;2.67;;;;;;;9.96;79.19;95500.22;6367296;22;20049;-61
2022/04/13 01:23:41;;;;;;;4.32;2.70;;;;;;;9.98;78.40;95498.25;6367457;22;19998;-61
2022/04/13 01:26:10;;;;;;;7.07;2.60;;;;;;;10.01;79.52;95497.16;6367383;22;20063;-61
2022/04/13 01:28:36;;;;;;;2.92;2.50;;;;;;;9.93;79.36;95492.59;6366979;22;20010;-61
2022/04/13 01:31:01;;;;;;;4.85;2.55;;;;;;;9.89;79.02;95499.94;6367117;22;20505;-61
2022/04/13 01:33:28;;;;;;;6.88;2.53;;;;;;;9.89;78.79;95493.88;6366424;22;20002;-61
2022/04/13 01:35:56;;;;;;;7.07;2.25;;;;;;;9.91;78.18;95488.44;6366626;22;20002;-62
2022/04/13 01:38:21;;;;;;;4.82;2.15;;;;;;;9.90;77.94;95490.25;6367885;22;20379;-61
2022/04/13 01:40:48;;;;;;;2.60;2.15;;;;;;;9.83;79.51;95489.16;6366575;22;20003;-61
2022/04/13 01:43:14;;;;;;;3.42;2.60;;;;;;;9.76;79.85;95486.28;6367524;22;20029;-61
2022/04/13 01:45:39;;;;;;;3.30;2.20;;;;;;;9.74;79.47;95489.03;6367041;22;20003;-61
2022/04/13 01:48:05;;;;;;;3.45;2.40;;;;;;;9.72;79.71;95495.41;6367177;22;20011;-61
2022/04/13 01:50:30;;;;;;;8.05;2.53;;;;;;;9.72;79.19;95500.66;6366837;22;20094;-61
2022/04/13 01:52:56;;;;;;;2.50;2.28;;;;;;;9.74;78.67;95502.19;6367194;22;20089;-61
2022/04/13 01:55:21;;;;;;;4.13;2.30;;;;;;;9.77;79.11;95502.88;6367072;22;19994;-61
2022/04/13 01:57:46;;;;;;;6.18;2.00;;;;;;;9.76;79.14;95502.06;6366739;22;20409;-61
2022/04/13 02:00:13;;;;;;;2.25;2.00;;;;;;;9.71;80.07;95499.00;6367131;22;20073;-61
2022/04/13 02:02:39;;;;;;;7.65;3.22;;;;;;;9.68;79.61;95500.13;6366510;22;20006;-61
2022/04/13 02:05:05;;;;;;;5.30;2.25;;;;;;;9.67;79.38;95509.00;6367029;22;20006;-61
2022/04/13 02:07:30;;;;;;;5.30;2.30;;;;;;;9.63;80.15;95515.50;6366469;22;20320;-61
2022/04/13 02:09:56;;;;;;;3.00;2.72;;;;;;;9.60;80.73;95503.47;6367116;22;20016;-61
2022/04/13 02:12:21;;;;;;;3.45;2.67;;;;;;;9.57;81.47;95508.16;6367054;22;20021;-61
2022/04/13 02:14:47;;;;;;;4.50;2.70;;;;;;;9.54;81.16;95498.78;6366739;22;20384;-61
2022/04/13 02:17:16;;;;;;;4.88;2.72;;;;;;;9.48;81.15;95496.69;6367060;22;20006;-62
2022/04/13 02:19:42;;;;;;;3.97;2.70;;;;;;;9.52;79.86;95497.25;6366490;22;20438;-61
2022/04/13 02:22:08;;;;;;;4.05;2.90;;;;;;;9.61;79.12;95491.13;6366878;22;20073;-61
2022/04/13 02:24:38;;;;;;;3.92;2.80;;;;;;;9.54;79.68;95497.94;6366778;22;20099;-61
2022/04/13 02:27:04;;;;;;;4.13;2.50;;;;;;;9.50;80.42;95492.13;6366563;22;20008;-61
2022/04/13 02:29:29;;;;;;;3.47;2.75;;;;;;;9.45;80.71;95500.44;6366652;22;20081;-61
2022/04/13 02:31:55;;;;;;;2.88;2.40;;;;;;;9.31;82.21;95506.09;6366705;22;20056;-61
2022/04/13 02:34:20;;;;;;;3.80;3.40;;;;;;;9.25;82.14;95498.78;6366780;22;20043;-61
2022/04/13 02:36:46;;;;;;;3.03;2.80;;;;;;;9.29;81.89;95505.41;6366712;22;20014;-61
2022/04/13 02:39:11;;;;;;;6.60;3.28;;;;;;;9.27;81.61;95510.81;6367047;22;20002;-61
2022/04/13 02:41:37;;;;;;;8.10;2.80;;;;;;;9.38;80.55;95507.19;6366898;22;20338;-61
2022/04/13 02:44:02;;;;;;;5.85;2.55;;;;;;;9.62;78.88;95511.22;6367168;22;20009;-61
2022/04/13 02:46:27;;;;;;;5.13;2.30;;;;;;;9.42;79.47;95499.88;6367363;22;20342;-61
2022/04/13 02:48:53;;;;;;;5.15;2.38;;;;;;;9.34;80.21;95505.00;6366986;22;20507;-61
2022/04/13 02:51:18;;;;;;;4.82;3.10;;;;;;;9.21;82.00;95513.19;6366754;22;20045;-61
2022/04/13 02:53:44;;;;;;;3.42;2.92;;;;;;;9.16;81.53;95511.75;6368348;22;20006;-61
2022/04/13 02:56:09;;;;;;;3.47;3.15;;;;;;;9.12;82.44;95510.38;6368996;22;20441;-61
2022/04/13 02:58:35;;;;;;;4.13;3.75;;;;;;;9.10;82.68;95512.31;6368912;22;20078;-61
2022/04/13 03:01:03;;;;;;;7.72;3.53;;;;;;;9.15;81.44;95514.53;6368645;22;20395;-61
2022/04/13 03:03:29;;;;;;;6.38;3.03;;;;;;;9.11;81.23;95513.97;6368775;22;20030;-61
2022/04/13 03:05:54;;;;;;;3.83;3.25;;;;;;;9.09;81.75;95515.09;6368691;22;20013;-61
2022/04/13 03:08:19;;;;;;;4.53;3.08;;;;;;;9.06;82.09;95523.22;6368886;22;20356;-61
2022/04/13 03:10:45;;;;;;;6.15;3.20;;;;;;;8.96;83.29;95518.81;6368683;22;20421;-61
2022/04/13 03:13:10;;;;;;;4.00;2.85;;;;;;;8.92;82.58;95520.06;6368665;22;20139;-61
2022/04/13 03:15:36;;;;;;;4.45;2.95;;;;;;;8.92;81.84;95519.22;6368264;22;20065;-61
2022/04/13 03:18:02;;;;;;;3.92;3.20;;;;;;;8.88;81.94;95521.28;6340691;22;20014;-61
2022/04/13 03:20:27;;;;;;;4.35;2.60;;;;;;;8.85;82.54;95516.31;6367945;22;20002;-61
2022/04/13 03:22:53;;;;;;;2.42;2.00;;;;;;;8.87;82.63;95511.75;6368757;22;20006;-62
2022/04/13 03:25:18;;;;;;;3.10;2.38;;;;;;;8.88;82.93;95513.41;6368113;22;19998;-62
2022/04/13 03:27:44;;;;;;;6.07;2.70;;;;;;;8.86;83.16;95510.91;6367917;22;19994;-61
2022/04/13 03:30:13;;;;;;;5.72;4.35;;;;;;;8.84;83.07;95517.25;6368810;22;20003;-62
2022/04/13 03:32:39;;;;;;;4.00;3.20;;;;;;;8.85;82.78;95522.38;6368078;22;19998;-61
2022/04/13 03:35:06;;;;;;;3.90;3.13;;;;;;;8.85;82.77;95511.88;6367905;22;20342;-61
2022/04/13 03:37:31;;;;;;;7.75;3.63;;;;;;;8.85;83.55;95516.31;6368131;22;20008;-61
2022/04/13 03:39:56;;;;;;;6.57;4.93;;;;;;;8.82;84.08;95514.78;6367976;22;20030;-61
2022/04/13 03:42:22;;;;;;;8.48;5.45;;;;;;;8.77;84.44;95516.16;6368091;22;20002;-61
2022/04/13 03:44:47;;;;;;;5.65;4.53;;;;;;;8.73;84.12;95518.19;6367286;22;20006;-61
2022/04/13 03:47:12;;;;;;;8.00;3.38;;;;;;;8.72;83.77;95517.38;6367524;22;20003;-61
2022/04/13 03:49:38;;;;;;;4.50;2.95;;;;;;;8.77;83.44;95516.16;6367635;22;20333;-62
2022/04/13 03:52:04;;;;;;;5.80;2.95;;;;;;;8.78;83.48;95520.44;6367982;22;20194;-61
2022/04/13 03:54:29;;;;;;;7.95;3.30;;;;;;;8.76;84.13;95524.97;6367406;22;19994;-61
2022/04/13 03:56:54;;;;;;;4.57;3.25;;;;;;;8.78;83.92;95525.69;6367634;22;20082;-62
2022/04/13 03:59:21;;;;;;;5.72;3.30;;;;;;;8.73;85.18;95532.16;6368253;22;20002;-62
2022/04/13 04:01:47;;;;;;;3.28;2.97;;;;;;;8.71;85.10;95530.63;6367868;22;20089;-61
2022/04/13 04:04:12;;;;;;;4.78;3.03;;;;;;;8.74;84.63;95536.44;6367619;22;20033;-61
2022/04/13 04:06:38;;;;;;;5.32;3.13;;;;;;;8.75;84.69;95539.91;6367877;22;20075;-63
2022/04/13 04:09:04;;;;;;;3.05;2.85;;;;;;;8.76;84.53;95538.09;6367971;22;19998;-62
2022/04/13 04:11:29;;;;;;;3.40;3.10;;;;;;;8.76;84.09;95541.56;6367906;22;20006;-61
2022/04/13 04:13:55;;;;;;;4.38;3.03;;;;;;;8.79;83.70;95533.44;6367388;22;20011;-61
2022/04/13 04:16:20;;;;;;;3.30;2.65;;;;;;;8.83;83.74;95536.59;6368128;22;20010;-61
2022/04/13 04:18:48;;;;;;;5.47;3.95;;;;;;;8.84;82.97;95541.72;6367336;22;20408;-61
2022/04/13 04:21:15;;;;;;;11.25;6.03;;;;;;;8.85;83.28;95539.94;6366674;22;20029;-61
2022/04/13 04:23:41;;;;;;;9.65;6.50;;;;;;;8.87;82.88;95538.81;6366769;22;19998;-62
2022/04/13 04:26:06;;;;;;;5.47;3.90;;;;;;;8.86;83.86;95544.22;6339701;22;20018;-61
2022/04/13 04:28:32;;;;;;;5.40;4.03;;;;;;;8.85;83.64;95532.88;6366828;22;20342;-62
2022/04/13 04:30:57;;;;;;;6.03;3.42;;;;;;;8.83;84.03;95547.09;6367656;22;20057;-62
2022/04/13 04:33:24;;;;;;;4.85;3.83;;;;;;;8.80;83.72;95553.47;6367529;22;20435;-61
2022/04/13 04:35:51;;;;;;;6.10;4.18;;;;;;;8.79;83.57;95551.81;6367731;22;19994;-62
2022/04/13 04:38:17;;;;;;;5.40;3.70;;;;;;;8.72;84.24;95558.53;6367808;22;20002;-62
2022/04/13 04:40:42;;;;;;;7.30;4.30;;;;;;;8.71;83.62;95559.50;6367783;22;20003;-62
2022/04/13 04:43:08;;;;;;;9.20;6.25;;;;;;;8.75;83.17;95566.16;6367667;22;19998;-62
2022/04/13 04:45:33;;;;;;;8.93;4.70;;;;;;;8.78;82.75;95568.53;6367497;22;20331;-62
2022/04/13 04:48:04;;;;;;;5.40;3.67;;;;;;;8.84;82.28;95575.00;6367502;22;20002;-62
2022/04/13 04:50:30;;;;;;;8.20;3.67;;;;;;;8.79;82.53;95585.94;6367368;22;20018;-61
2022/04/13 04:52:55;;;;;;;8.05;3.97;;;;;;;8.76;82.94;95586.19;6367344;22;20006;-62
2022/04/13 04:55:21;;;;;;;5.90;3.60;;;;;;;8.71;83.62;95583.13;6367435;22;20055;-62
2022/04/13 04:57:47;;;;;;;8.25;3.40;;;;;;;8.71;83.78;95591.00;6367533;22;20036;-62
2022/04/13 05:00:17;;;;;;;5.82;3.83;;;;;;;8.69;83.97;95591.16;6367264;22;20033;-62
2022/04/13 05:02:43;;;;;;;4.15;3.72;;;;;;;8.64;84.30;95589.88;6366774;22;20003;-62
2022/04/13 05:05:09;;;;;;;6.38;3.92;;;;;;;8.62;84.69;95597.06;6367219;22;20002;-62
2022/04/13 05:07:34;;;;;;;6.60;4.57;;;;;;;8.63;84.70;95596.09;6367290;22;20091;-62
2022/04/13 05:10:00;;;;;;;5.68;4.03;;;;;;;8.64;84.37;95595.97;6367866;22;20098;-61
2022/04/13 05:12:29;;;;;;;9.65;4.07;;;;;;;8.68;83.37;95597.38;6367861;22;20025;-62
2022/04/13 05:14:55;;;;;;;6.18;4.05;;;;;;;8.67;83.62;95587.81;6367091;22;20007;-62
2022/04/13 05:17:24;;;;;;;7.22;4.05;;;;;;;8.63;83.91;95598.72;6367692;22;20073;-62
2022/04/13 05:19:49;;;;;;;5.60;4.50;;;;;;;8.75;83.41;95602.91;6367653;22;20002;-62
2022/04/13 05:22:16;;;;;;;5.50;4.13;;;;;;;8.76;84.20;95601.09;6366362;22;20006;-62
2022/04/13 05:24:41;;;;;;;7.03;4.65;;;;;;;8.78;83.35;95591.31;6364665;22;20383;-63
2022/04/13 05:27:08;;;;;;;7.75;3.85;;;;;;;8.74;83.83;95596.81;6366626;22;20469;-62
2022/04/13 05:29:34;;;;;;;6.72;4.82;;;;;;;8.74;85.35;95602.06;6367468;22;20030;-62
2022/04/13 05:31:59;;;;;;;9.20;4.55;;;;;;;8.76;84.96;95596.69;6367204;22;19998;-62
2022/04/13 05:34:24;;;;;;;5.57;4.10;;;;;;;8.84;84.40;95594.22;6367456;22;20002;-62
2022/04/13 05:36:50;;;;;;;6.75;3.90;;;;;;;8.90;84.53;95598.13;6367511;22;20492;-62
2022/04/13 05:39:15;;;;;;;10.05;4.20;;;;;;;8.97;83.75;95607.13;6367688;22;20093;-62
2022/04/13 05:41:41;;;;;;;8.80;4.78;;;;;;;9.04;83.42;95602.16;6367586;22;20005;-62
2022/04/13 05:44:06;;;;;;;6.38;3.47;;;;;;;9.11;83.10;95603.28;6367092;22;20059;-61
2022/04/13 05:46:33;;;;;;;5.57;3.83;;;;;;;9.19;82.59;95605.22;6364509;22;20069;-62
2022/04/13 05:48:59;;;;;;;4.82;3.53;;;;;;;9.27;83.21;95601.94;6365855;22;20005;-63
2022/04/13 05:51:25;;;;;;;12.48;4.70;;;;;;;9.30;84.02;95609.53;6366965;22;20006;-62
2022/04/13 05:53:50;;;;;;;8.05;4.93;;;;;;;9.29;84.39;95607.88;6366806;22;20025;-61
2022/04/13 05:56:16;;;;;;;8.85;4.47;;;;;;;9.35;84.72;95607.31;6366177;22;20002;-61
2022/04/13 05:58:41;;;;;;;6.25;3.97;;;;;;;9.51;83.40;95613.84;6366447;22;19998;-62
2022/04/13 06:01:07;;;;;;;5.03;3.63;;;;;;;9.59;83.08;95609.56;6366932;22;20055;-61
2022/04/13 06:03:32;;;;;;;5.85;3.40;;;;;;;9.74;81.91;95617.88;6365641;22;20426;-61
2022/04/13 06:05:57;;;;;;;6.00;3.28;;;;;;;9.90;80.26;95613.84;6364847;22;20069;-62
2022/04/13 06:08:23;;;;;;;5.78;3.08;;;;;;;10.00;79.55;95617.28;6365803;22;19999;-62
2022/04/13 06:10:48;;;;;;;5.07;4.10;;;;;;;10.08;79.38;95613.16;6365124;22;19998;-61
2022/04/13 06:13:14;;;;;;;12.93;3.40;;;;;;;10.13;79.98;95618.81;6365490;22;20506;-61
2022/04/13 06:15:39;;;;;;;9.73;3.65;;;;;;;10.20;81.15;95622.53;6365339;22;20002;-62
2022/04/13 06:18:05;;;;;;;7.57;3.22;;;;;;;10.30;80.46;95615.47;6365844;22;20041;-61
2022/04/13 06:20:30;;;;;;;4.32;2.90;;;;;;;10.35;80.22;95619.47;6366204;22;20049;-61
2022/04/13 06:22:55;;;;;;;5.25;2.90;;;;;;;10.35;79.64;95627.34;6366510;22;20013;-61
2022/04/13 06:25:21;;;;;;;6.53;3.30;;;;;;;10.50;78.51;95625.13;6366666;22;20502;-62
2022/04/13 06:27:46;;;;;;;5.22;3.45;;;;;;;10.53;78.44;95628.31;6367489;22;20009;-61
2022/04/13 06:30:13;;;;;;;3.15;2.85;;;;;;;10.64;78.55;95642.25;6368847;22;20069;-62
2022/04/13 06:32:40;;;;;;;3.83;2.55;;;;;;;10.82;78.09;95634.44;6367549;22;19994;-62
2022/04/13 06:35:08;;;;;;;3.83;2.47;;;;;;;11.01;77.65;95646.72;6368573;22;20137;-64
2022/04/13 06:37:38;;;;;;;6.63;2.70;;;;;;;11.14;77.11;95643.72;6367608;22;20070;-60
2022/04/13 06:40:05;;;;;;;4.05;2.63;;;;;;;11.18;76.40;95648.56;6367389;22;20032;-61
2022/04/13 06:42:34;;;;;;;4.47;2.90;;;;;;;11.25;76.26;95658.50;6367591;22;20078;-61
2022/04/13 06:45:00;;;;;;;5.10;3.38;;;;;;;11.23;76.00;95657.84;6367418;22;20009;-61
2022/04/13 06:47:26;;;;;;;8.02;4.47;;;;;;;11.36;74.52;95660.94;6367386;22;19999;-60
2022/04/13 06:49:52;;;;;;;8.95;3.95;;;;;;;11.55;73.08;95667.06;6368103;22;20067;-60
2022/04/13 06:52:17;;;;;;;5.88;3.28;;;;;;;11.94;71.68;95660.72;6368684;22;20073;-61
2022/04/13 06:54:42;;;;;;;6.55;2.90;;;;;;;12.34;70.04;95661.22;6368940;22;20415;-60
2022/04/13 06:57:08;;;;;;;4.53;3.25;;;;;;;12.63;68.08;95654.81;6368446;22;20082;-60
2022/04/13 06:59:34;;;;;;;4.78;2.65;;;;;;;12.97;68.01;95662.75;6340316;22;20077;-60
2022/04/13 07:02:00;;;;;;;4.95;2.30;;;;;;;13.38;65.38;95658.63;6368027;22;20017;-60
2022/04/13 07:04:25;;;;;;;6.72;2.72;;;;;;;13.61;63.73;95666.84;6368376;22;20073;-60
2022/04/13 07:06:50;;;;;;;4.13;3.05;;;;;;;13.57;62.50;95663.69;6366535;22;20025;-61
2022/04/13 07:09:16;;;;;;;9.32;2.80;;;;;;;13.80;64.01;95657.78;6339215;22;20018;-60
2022/04/13 07:11:41;;;;;;;4.60;3.33;;;;;;;13.79;61.59;95658.78;6363953;22;20093;-61
2022/04/13 07:14:07;;;;;;;6.82;3.78;;;;;;;13.97;61.27;95668.41;6365644;22;20069;-61
2022/04/13 07:16:32;;;;;;;8.85;3.63;;;;;;;13.56;62.88;95663.84;6367496;22;20006;-61
2022/04/13 07:18:58;;;;;;;10.95;3.10;;;;;;;13.45;62.27;95657.03;6367769;22;20009;-61
2022/04/13 07:21:24;;;;;;;8.00;3.70;;;;;;;13.22;63.96;95660.22;6366496;22;20078;-61
2022/04/13 07:23:49;;;;;;;9.15;3.33;;;;;;;13.28;63.84;95650.84;6366306;22;20009;-61
2022/04/13 07:26:15;;;;;;;8.88;3.33;;;;;;;13.35;63.51;95653.66;6367820;22;19998;-62
2022/04/13 07:28:40;;;;;;;11.07;4.38;;;;;;;13.37;62.97;95652.50;6367157;22;20009;-62
2022/04/13 07:31:05;;;;;;;9.05;4.57;;;;;;;13.59;63.08;95653.78;6366701;22;20090;-61
2022/04/13 07:33:31;;;;;;;7.00;3.85;;;;;;;14.26;60.86;95652.03;6367248;22;20327;-61
2022/04/13 07:35:56;;;;;;;6.85;3.38;;;;;;;14.87;58.70;95646.31;6367140;22;20006;-61
2022/04/13 07:38:21;;;;;;;5.68;3.60;;;;;;;15.19;58.33;95643.72;6366500;22;19998;-61
2022/04/13 07:40:48;;;;;;;4.75;3.25;;;;;;;15.10;57.15;95648.25;6366858;22;20009;-61
2022/04/13 07:43:14;;;;;;;10.02;3.25;;;;;;;15.66;56.85;95642.03;6367650;22;20002;-61
2022/04/13 07:45:39;;;;;;;8.57;3.20;;;;;;;15.82;53.88;95641.09;6366784;22;20095;-61
2022/04/13 07:48:05;;;;;;;5.35;3.05;;;;;;;15.78;53.41;95645.09;6367368;22;20007;-61
2022/04/13 07:50:31;;;;;;;4.22;3.22;;;;;;;15.76;56.62;95637.31;6366762;22;20328;-61
2022/04/13 07:52:57;;;;;;;6.05;3.25;;;;;;;16.31;55.00;95647.91;6367480;22;20002;-61
2022/04/13 07:55:23;;;;;;;6.68;3.38;;;;;;;16.91;54.01;95641.84;6367044;22;20839;-61
2022/04/13 07:57:48;;;;;;;7.68;3.25;;;;;;;17.02;49.03;95645.91;6366872;22;20030;-61
2022/04/13 08:00:14;;;;;;;3.17;2.38;;;;;;;16.81;49.38;95647.44;6366162;22;20514;-61
2022/04/13 08:02:40;;;;;;;6.75;2.78;;;;;;;16.46;50.02;95649.75;6365562;22;20442;-61
2022/04/13 08:05:07;;;;;;;5.82;2.55;;;;;;;16.35;49.96;95658.97;6366402;22;20498;-61
2022/04/13 08:07:33;;;;;;;10.85;2.58;;;;;;;16.66;50.91;95658.06;6366691;22;20021;-61
2022/04/13 08:09:59;;;;;;;3.83;2.58;;;;;;;17.17;50.43;95660.03;6366102;22;20445;-61
2022/04/13 08:12:28;;;;;;;5.15;2.45;;;;;;;17.20;50.68;95664.16;6366837;22;20063;-61
2022/04/13 08:14:53;;;;;;;4.40;2.40;;;;;;;17.46;49.68;95663.69;6366914;22;20002;-61
2022/04/13 08:17:19;;;;;;;4.47;2.70;;;;;;;17.87;47.82;95666.81;6367388;22;20469;-61
2022/04/13 08:19:44;;;;;;;3.72;2.55;;;;;;;17.83;47.16;95668.19;6366912;22;20002;-61
2022/04/13 08:22:09;;;;;;;3.30;2.60;;;;;;;17.83;46.75;95676.19;6367022;22;20006;-61
2022/04/13 08:24:35;;;;;;;3.65;2.42;;;;;;;18.13;47.01;95668.97;6366962;22;20006;-61
2022/04/13 08:27:00;;;;;;;3.97;2.30;;;;;;;18.12;46.49;95674.47;6367101;22;20074;-61
2022/04/13 08:29:26;;;;;;;5.10;2.58;;;;;;;17.86;46.53;95681.94;6367149;22;20144;-61
2022/04/13 08:31:51;;;;;;;2.95;2.45;;;;;;;17.33;47.24;95680.31;6366457;22;20499;-61
2022/04/13 08:34:16;;;;;;;2.78;2.05;;;;;;;17.56;47.75;95679.34;6366862;22;20014;-61
2022/04/13 08:36:42;;;;;;;3.83;2.72;;;;;;;17.76;46.43;95681.44;6365623;22;20059;-61
2022/04/13 08:39:13;;;;;;;4.28;2.78;;;;;;;17.59;46.57;95684.31;6366953;22;20549;-61
2022/04/13 08:41:58;;;;;;;4.07;2.58;;;;;;;17.80;46.12;95690.69;6366417;22;19999;-61
2022/04/13 08:44:29;;;;;;;4.72;2.70;;;;;;;18.56;43.89;95691.25;6366501;22;20024;-61
2022/04/13 08:47:00;;;;;;;3.10;2.38;;;;;;;18.76;43.95;95689.56;6366261;22;20391;-61
2022/04/13 08:49:26;;;;;;;6.10;2.40;;;;;;;18.81;42.61;95693.53;6366366;22;20018;-61
2022/04/13 08:51:53;;;;;;;4.82;2.42;;;;;;;19.27;43.16;95685.03;6366738;22;20051;-61
2022/04/13 08:54:29;;;;;;;2.40;2.20;;;;;;;19.40;41.44;95678.09;6367149;22;20081;-61
2022/04/13 08:56:57;;;;;;;4.50;2.72;;;;;;;18.73;43.70;95691.81;6366107;22;20002;-61
2022/04/13 08:59:46;;;;;;;7.30;2.80;;;;;;;18.94;44.50;95679.47;6366548;22;20006;-61
2022/04/13 09:02:26;;;;;;;6.85;3.28;;;;;;;19.82;42.22;95686.91;6366286;22;20013;-58
2022/04/13 09:04:56;;;;;;;6.75;2.30;;;;;;;19.36;41.53;95688.34;6366587;22;20123;-61
2022/04/13 09:07:26;;;;;;;7.50;2.83;;;;;;;18.90;44.21;95687.00;6366099;22;20002;-61
2022/04/13 09:09:55;;;;;;;6.50;2.35;;;;;;;19.32;43.77;95684.41;6365402;22;19999;-61
2022/04/13 09:12:21;;;;;;;11.85;2.40;;;;;;;19.94;41.66;95681.00;6366369;22;19999;-61
2022/04/13 09:14:46;;;;;;;3.60;2.17;;;;;;;19.64;40.22;95678.59;6366130;22;20013;-61
2022/04/13 09:17:12;;;;;;;6.53;3.10;;;;;;;20.36;40.84;95672.88;6365609;22;20006;-61
2022/04/13 09:19:38;;;;;;;7.50;2.75;;;;;;;20.40;40.39;95674.09;6365310;22;20073;-59
2022/04/13 09:22:04;;;;;;;6.85;2.78;;;;;;;20.77;41.30;95674.53;6338155;22;20721;-59
2022/04/13 09:24:32;;;;;;;5.32;2.80;;;;;;;21.07;38.61;95666.06;6366863;22;20002;-61
2022/04/13 09:26:59;;;;;;;6.85;2.75;;;;;;;20.97;38.41;95669.16;6366217;22;20038;-61
2022/04/13 09:29:25;;;;;;;4.85;2.67;;;;;;;21.10;39.11;95671.00;6365668;22;20059;-61
2022/04/13 09:31:50;;;;;;;8.80;3.15;;;;;;;21.18;37.88;95664.59;6337729;22;20018;-61
2022/04/13 09:34:16;;;;;;;4.28;2.17;;;;;;;21.24;37.81;95665.63;6366779;22;20001;-61
2022/04/13 09:36:41;;;;;;;6.55;2.53;;;;;;;22.58;35.81;95656.13;6366283;22;20015;-61
2022/04/13 09:39:07;;;;;;;4.82;2.40;;;;;;;22.80;35.17;95656.56;6366707;22;20013;-58
2022/04/13 09:41:35;;;;;;;4.78;2.22;;;;;;;22.19;36.21;95658.84;6366042;22;20030;-60
2022/04/13 09:44:01;;;;;;;5.45;2.60;;;;;;;22.52;35.30;95655.13;6366472;22;20074;-59
2022/04/13 09:46:30;;;;;;;6.75;3.22;;;;;;;21.92;37.53;95648.28;6366736;22;20350;-61
2022/04/13 09:49:12;;;;;;;5.20;3.30;;;;;;;22.20;37.62;95647.06;6365861;22;19998;-61
2022/04/13 09:51:50;;;;;;;9.65;3.10;;;;;;;22.86;34.84;95642.25;6364715;22;20025;-58
2022/04/13 09:54:16;;;;;;;3.70;2.38;;;;;;;23.08;33.71;95633.78;6365691;22;20002;-58
2022/04/13 09:56:49;;;;;;;6.45;2.55;;;;;;;22.93;34.94;95641.38;6365953;22;20553;-58
2022/04/13 09:59:31;;;;;;;6.03;2.42;;;;;;;22.74;34.40;95641.34;6366058;22;20039;-58
2022/04/13 10:01:57;;;;;;;4.97;2.22;;;;;;;22.25;36.50;95631.19;6367317;22;20203;-59
2022/04/13 10:04:27;;;;;;;3.67;2.50;;;;;;;22.08;36.71;95630.06;6369533;22;20442;-58
2022/04/13 10:06:53;;;;;;;5.78;2.30;;;;;;;22.23;33.88;95627.06;6340617;22;20346;-61
2022/04/13 10:09:21;;;;;;;5.90;2.70;;;;;;;21.10;37.62;95628.19;6369229;22;20002;-61
2022/04/13 10:12:03;;;;;;;5.22;2.75;;;;;;;21.39;37.42;95634.06;6368463;22;20010;-61
2022/04/13 10:14:32;;;;;;;6.70;2.95;;;;;;;21.00;39.03;95630.47;6369909;22;20081;-61
2022/04/13 10:17:12;;;;;;;9.73;2.95;;;;;;;21.89;35.53;95621.91;6369479;22;20006;-61
2022/04/13 10:19:39;;;;;;;7.95;2.50;;;;;;;21.90;37.67;95618.19;6369477;22;20439;-61
2022/04/13 10:22:05;;;;;;;5.53;2.28;;;;;;;21.81;37.22;95617.63;6368945;22;20021;-61
2022/04/13 10:24:32;;;;;;;3.97;2.55;;;;;;;22.71;35.18;95614.94;6370085;22;20397;-61
2022/04/13 10:27:11;;;;;;;4.93;2.42;;;;;;;22.41;36.89;95612.88;6369581;22;20006;-61
2022/04/13 10:29:39;;;;;;;4.82;2.55;;;;;;;22.50;35.92;95614.31;6369371;22;20007;-61
2022/04/13 10:32:10;;;;;;;3.78;2.35;;;;;;;23.20;33.38;95598.13;6369165;22;20006;-58
2022/04/13 10:34:38;;;;;;;6.22;2.75;;;;;;;23.29;34.90;95594.13;6369794;22;20013;-58
2022/04/13 10:37:06;;;;;;;4.22;2.30;;;;;;;23.45;34.53;95593.53;6369791;22;19998;-58
2022/04/13 10:39:31;;;;;;;3.90;2.30;;;;;;;23.79;33.33;95584.22;6369683;22;20383;-59
2022/04/13 10:41:57;;;;;;;4.32;2.58;;;;;;;23.75;33.72;95584.63;6341511;22;20018;-58
2022/04/13 10:44:33;;;;;;;6.60;2.60;;;;;;;23.65;32.02;95575.47;6369865;22;20065;-59
2022/04/13 10:47:03;;;;;;;8.02;2.90;;;;;;;23.25;33.58;95574.97;6369528;22;20009;-58
2022/04/13 10:49:34;;;;;;;7.10;2.63;;;;;;;24.41;31.83;95572.31;6369545;22;20010;-58
2022/04/13 10:52:07;;;;;;;4.60;2.90;;;;;;;24.97;31.15;95561.22;6369215;22;19998;-58
2022/04/13 10:54:36;;;;;;;2.88;2.50;;;;;;;24.82;31.14;95567.09;6370131;22;20037;-59
2022/04/13 10:57:06;;;;;;;6.90;2.72;;;;;;;23.81;31.97;95563.28;6369884;22;20010;-60
2022/04/13 10:59:50;;;;;;;8.20;2.60;;;;;;;24.26;30.74;95565.53;6369302;22;20033;-60
2022/04/13 11:02:42;;;;;;;3.38;2.17;;;;;;;23.91;32.15;95552.00;6369350;22;20013;-61
2022/04/13 11:05:08;;;;;;;8.52;2.40;;;;;;;23.58;30.72;95559.47;6369314;22;20085;-60
2022/04/13 11:07:36;;;;;;;3.80;2.22;;;;;;;24.38;32.42;95560.16;6368844;22;20025;-60
2022/04/13 11:10:02;;;;;;;9.50;3.10;;;;;;;24.54;32.74;95555.94;6368419;22;20090;-61
2022/04/13 11:12:31;;;;;;;6.78;2.65;;;;;;;24.07;34.40;95566.66;6367912;22;20002;-61
2022/04/13 11:15:02;;;;;;;7.88;3.17;;;;;;;24.55;32.23;95560.28;6367559;22;20371;-60
2022/04/13 11:17:28;;;;;;;3.85;2.70;;;;;;;24.45;33.50;95549.28;6366722;22;20350;-61
2022/04/13 11:20:22;;;;;;;9.18;3.20;;;;;;;25.03;32.50;95560.28;6367724;22;20049;-60
2022/04/13 11:23:10;;;;;;;8.80;2.47;;;;;;;25.30;30.54;95551.66;6367915;22;20024;-60
2022/04/13 11:25:51;;;;;;;7.03;2.70;;;;;;;24.82;30.52;95548.25;6368364;22;20076;-60
2022/04/13 11:28:27;;;;;;;5.80;3.05;;;;;;;25.07;32.14;95549.84;6367640;22;20431;-58
2022/04/13 11:31:07;;;;;;;6.60;2.50;;;;;;;25.38;31.25;95547.75;6367546;22;20006;-60
2022/04/13 11:33:49;;;;;;;6.13;2.42;;;;;;;25.17;30.15;95536.59;6367655;22;20441;-60
2022/04/13 11:36:16;;;;;;;5.90;2.67;;;;;;;24.93;30.18;95541.22;6367361;22;20454;-60